createdAt,value
2018-07-17T00:01:31.053Z,20.73
2018-07-17T00:04:01.769Z,22.37
2018-07-17T00:06:34.003Z,20.07
2018-07-17T00:09:06.027Z,20.30
2018-07-17T00:11:38.254Z,20.63
2018-07-17T00:14:10.130Z,20.13
2018-07-17T00:16:41.326Z,19.23
2018-07-17T00:19:13.076Z,20.50
2018-07-17T00:21:45.183Z,19.97
2018-07-17T00:24:16.882Z,20.53
2018-07-17T00:26:48.382Z,20.33
2018-07-17T00:29:20.544Z,19.50
2018-07-17T00:31:54.803Z,19.13
2018-07-17T00:34:26.657Z,20.60
2018-07-17T00:36:58.330Z,20.40
2018-07-17T00:39:29.771Z,20.50
2018-07-17T00:42:01.919Z,19.77
2018-07-17T00:44:33.756Z,20.73
2018-07-17T00:47:05.419Z,20.50
2018-07-17T00:49:37.582Z,20.20
2018-07-17T00:52:09.924Z,20.00
2018-07-17T00:54:41.344Z,21.63
2018-07-17T00:57:13.327Z,19.90
2018-07-17T00:59:44.903Z,19.33
2018-07-17T01:02:20.390Z,18.03
2018-07-17T01:04:56.898Z,20.17
2018-07-17T01:07:33.562Z,19.50
2018-07-17T01:10:09.925Z,20.23
2018-07-17T01:12:39.741Z,19.93
2018-07-17T01:15:18.242Z,19.97
2018-07-17T01:17:50.110Z,19.60
2018-07-17T01:20:21.650Z,20.63
2018-07-17T01:22:53.418Z,20.93
2018-07-17T01:25:25.460Z,20.50
2018-07-17T01:27:57.365Z,21.07
2018-07-17T01:30:27.869Z,21.60
2018-07-17T01:33:01.858Z,21.53
2018-07-17T01:35:33.350Z,20.20
2018-07-17T01:38:05.238Z,20.90
2018-07-17T01:40:36.903Z,21.33
2018-07-17T01:43:08.149Z,21.67
2018-07-17T01:45:39.846Z,20.10
2018-07-17T01:48:11.655Z,19.43
2018-07-17T01:50:43.418Z,19.87
2018-07-17T01:53:15.529Z,19.03
2018-07-17T01:55:47.237Z,18.80
2018-07-17T01:58:19.328Z,19.90
2018-07-17T02:00:50.010Z,19.80
2018-07-17T02:03:21.858Z,20.00
2018-07-17T02:05:53.506Z,19.50
2018-07-17T02:08:25.695Z,19.87
2018-07-17T02:10:57.461Z,19.10
2018-07-17T02:13:29.118Z,18.47
2018-07-17T02:16:00.673Z,19.83
2018-07-17T02:18:32.486Z,19.97
2018-07-17T02:21:04.302Z,19.80
2018-07-17T02:23:36.074Z,20.00
2018-07-17T02:26:07.377Z,18.87
2018-07-17T02:28:39.174Z,19.40
2018-07-17T02:31:10.250Z,21.37
2018-07-17T02:33:43.269Z,19.10
2018-07-17T02:36:14.900Z,19.20
2018-07-17T02:38:46.560Z,20.13
2018-07-17T02:41:18.341Z,20.80
2018-07-17T02:43:50.587Z,20.13
2018-07-17T02:46:22.375Z,21.20
2018-07-17T02:48:54.431Z,19.70
2018-07-17T02:51:26.209Z,21.00
2018-07-17T02:53:57.925Z,19.33
2018-07-17T02:56:28.650Z,19.60
2018-07-17T02:59:00.379Z,20.67
2018-07-17T03:01:32.171Z,20.90
2018-07-17T03:04:04.091Z,21.57
2018-07-17T03:06:35.907Z,21.10
2018-07-17T03:09:08.825Z,20.60
2018-07-17T03:11:40.534Z,21.63
2018-07-17T03:14:12.280Z,20.63
2018-07-17T03:16:43.099Z,22.20
2018-07-17T03:19:15.167Z,21.67
2018-07-17T03:21:46.915Z,19.37
2018-07-17T03:24:18.611Z,20.07
2018-07-17T03:26:50.208Z,21.90
2018-07-17T03:29:22.388Z,22.50
2018-07-17T03:31:53.991Z,22.70
2018-07-17T03:34:26.846Z,20.83
2018-07-17T03:36:58.466Z,22.23
2018-07-17T03:39:30.163Z,22.03
2018-07-17T03:42:01.602Z,21.60
2018-07-17T03:44:34.475Z,20.20
2018-07-17T03:47:06.423Z,21.37
2018-07-17T03:49:38.096Z,20.60
2018-07-17T03:52:10.369Z,22.50
2018-07-17T03:54:42.182Z,22.90
2018-07-17T03:57:13.731Z,21.20
2018-07-17T03:59:46.502Z,23.00
2018-07-17T04:02:17.009Z,21.90
2018-07-17T04:04:48.830Z,20.83
2018-07-17T04:07:19.501Z,22.87
2018-07-17T04:09:51.250Z,21.00
2018-07-17T04:12:23.112Z,19.93
2018-07-17T04:14:54.990Z,20.60
2018-07-17T04:17:26.538Z,20.93
2018-07-17T04:19:58.271Z,20.07
2018-07-17T04:22:30.126Z,19.77
2018-07-17T04:25:02.086Z,19.33
2018-07-17T04:27:33.639Z,20.77
2018-07-17T04:30:05.535Z,20.47
2018-07-17T04:32:37.042Z,19.23
2018-07-17T04:35:09.514Z,19.60
2018-07-17T04:37:41.140Z,19.57
2018-07-17T04:40:12.671Z,18.30
2018-07-17T04:42:43.861Z,20.43
2018-07-17T04:45:15.426Z,18.73
2018-07-17T04:47:46.781Z,18.50
2018-07-17T04:50:18.514Z,18.30
2018-07-17T04:52:48.866Z,19.00
2018-07-17T04:55:22.474Z,16.93
2018-07-17T04:57:52.993Z,17.93
2018-07-17T05:00:24.570Z,16.80
2018-07-17T05:02:55.774Z,16.30
2018-07-17T05:05:27.399Z,18.07
2018-07-17T05:07:58.815Z,16.00
2018-07-17T05:10:29.527Z,15.57
2018-07-17T05:13:00.805Z,13.55
2018-07-17T05:15:32.303Z,12.95
2018-07-17T05:18:03.547Z,14.40
2018-07-17T05:20:34.935Z,14.03
2018-07-17T05:23:06.355Z,14.60
2018-07-17T05:25:37.984Z,14.03
2018-07-17T05:28:09.205Z,14.98
2018-07-17T05:30:40.674Z,15.00
2018-07-17T05:33:11.946Z,15.38
2018-07-17T05:35:44.488Z,15.23
2018-07-17T05:38:15.823Z,14.55
2018-07-17T05:40:47.269Z,13.88
2018-07-17T05:43:18.614Z,13.98
2018-07-17T05:45:50.227Z,14.47
2018-07-17T05:48:21.421Z,11.12
2018-07-17T05:50:52.931Z,10.10
2018-07-17T05:53:24.096Z,10.00
2018-07-17T05:55:55.670Z,8.90
2018-07-17T05:58:27.023Z,9.13
2018-07-17T06:00:58.608Z,9.73
2018-07-17T06:03:29.978Z,9.18
2018-07-17T06:06:01.418Z,9.08
2018-07-17T06:08:32.735Z,9.68
2018-07-17T06:11:03.406Z,9.88
2018-07-17T06:13:34.663Z,9.23
2018-07-17T06:16:06.222Z,8.78
2018-07-17T06:18:37.521Z,9.88
2018-07-17T06:21:09.142Z,10.08
2018-07-17T06:23:40.431Z,9.60
2018-07-17T06:26:11.893Z,9.18
2018-07-17T06:28:43.254Z,9.73
2018-07-17T06:31:14.834Z,9.00
2018-07-17T06:33:45.206Z,10.15
2018-07-17T06:36:18.507Z,9.78
2018-07-17T06:38:49.766Z,9.43
2018-07-17T06:41:23.735Z,9.50
2018-07-17T06:43:54.995Z,9.25
2018-07-17T06:46:26.482Z,8.43
2018-07-17T06:48:57.797Z,9.23
2018-07-17T06:51:29.449Z,9.65
2018-07-17T06:54:00.606Z,9.80
2018-07-17T06:56:32.045Z,9.90
2018-07-17T06:59:02.381Z,10.40
2018-07-17T07:01:33.862Z,10.03
2018-07-17T07:04:05.158Z,10.05
2018-07-17T07:06:36.887Z,9.60
2018-07-17T07:09:10.600Z,9.90
2018-07-17T07:11:42.208Z,10.75
2018-07-17T07:14:13.466Z,9.95
2018-07-17T07:16:44.951Z,10.78
2018-07-17T07:19:16.210Z,9.60
2018-07-17T07:21:48.494Z,11.03
2018-07-17T07:24:19.702Z,11.73
2018-07-17T07:26:51.122Z,10.95
2018-07-17T07:29:22.827Z,10.68
2018-07-17T07:31:54.354Z,9.83
2018-07-17T07:34:24.974Z,11.35
2018-07-17T07:36:56.579Z,10.43
2018-07-17T07:39:27.671Z,12.03
2018-07-17T07:41:59.551Z,10.28
2018-07-17T07:44:31.034Z,9.93
2018-07-17T07:47:02.691Z,9.48
2018-07-17T07:49:34.167Z,9.18
2018-07-17T07:52:05.665Z,9.23
2018-07-17T07:54:36.381Z,9.65
2018-07-17T07:57:07.810Z,9.68
2018-07-17T07:59:38.168Z,10.13
2018-07-17T08:02:10.134Z,10.10
2018-07-17T08:04:40.666Z,10.40
2018-07-17T08:07:12.222Z,9.78
2018-07-17T08:09:43.423Z,11.08
2018-07-17T08:12:14.924Z,10.00
2018-07-17T08:14:46.162Z,10.20
2018-07-17T08:17:17.746Z,10.60
2018-07-17T08:19:49.175Z,10.73
2018-07-17T08:22:19.717Z,10.90
2018-07-17T08:24:51.004Z,9.57
2018-07-17T08:27:22.417Z,10.10
2018-07-17T08:29:53.699Z,9.47
2018-07-17T08:32:25.562Z,10.00
2018-07-17T08:34:56.817Z,8.90
2018-07-17T08:37:29.712Z,10.67
2018-07-17T08:40:00.886Z,10.60
2018-07-17T08:42:32.545Z,10.30
2018-07-17T08:45:03.990Z,11.27
2018-07-17T08:47:35.475Z,10.07
2018-07-17T08:50:06.811Z,9.23
2018-07-17T08:52:38.188Z,9.10
2018-07-17T08:55:09.582Z,10.83
2018-07-17T08:57:40.118Z,11.10
2018-07-17T09:00:11.358Z,10.20
2018-07-17T09:02:42.879Z,9.30
2018-07-17T09:05:14.163Z,10.80
2018-07-17T09:07:45.542Z,9.60
2018-07-17T09:10:16.783Z,10.03
2018-07-17T09:12:47.583Z,9.43
2018-07-17T09:15:18.842Z,10.20
2018-07-17T09:17:49.305Z,10.40
2018-07-17T09:20:20.535Z,10.50
2018-07-17T09:22:52.019Z,9.47
2018-07-17T09:25:23.479Z,10.47
2018-07-17T09:27:55.105Z,9.87
2018-07-17T09:30:30.790Z,9.10
2018-07-17T09:33:02.270Z,9.63
2018-07-17T09:35:33.522Z,10.50
2018-07-17T09:38:05.571Z,10.40
2018-07-17T09:40:36.970Z,10.37
2018-07-17T09:43:07.806Z,9.70
2018-07-17T09:45:39.110Z,11.13
2018-07-17T09:48:10.647Z,10.40
2018-07-17T09:50:41.939Z,10.40
2018-07-17T09:53:13.442Z,10.50
2018-07-17T09:55:44.706Z,10.87
2018-07-17T09:58:16.130Z,10.73
2018-07-17T10:00:52.140Z,9.80
2018-07-17T10:03:22.766Z,13.30
2018-07-17T10:05:54.002Z,11.10
2018-07-17T10:08:25.283Z,10.67
2018-07-17T10:10:56.606Z,10.57
2018-07-17T10:13:27.992Z,10.83
2018-07-17T10:15:59.338Z,10.50
2018-07-17T10:18:30.862Z,10.40
2018-07-17T10:21:02.144Z,10.10
2018-07-17T10:23:33.770Z,10.67
2018-07-17T10:26:05.168Z,11.07
2018-07-17T10:28:35.955Z,11.17
2018-07-17T10:31:07.510Z,11.90
2018-07-17T10:33:38.985Z,11.03
2018-07-17T10:36:10.406Z,11.50
2018-07-17T10:38:43.725Z,11.20
2018-07-17T10:41:15.090Z,10.70
2018-07-17T10:43:46.689Z,10.33
2018-07-17T10:46:18.271Z,11.50
2018-07-17T10:48:49.574Z,11.30
2018-07-17T10:51:20.982Z,11.67
2018-07-17T10:53:51.656Z,11.27
2018-07-17T10:56:22.982Z,11.07
2018-07-17T10:58:54.611Z,11.03
2018-07-17T11:01:26.095Z,11.70
2018-07-17T11:03:57.380Z,11.57
2018-07-17T11:06:28.551Z,11.03
2018-07-17T11:09:00.115Z,11.77
2018-07-17T11:11:31.370Z,10.57
2018-07-17T11:14:02.049Z,10.77
2018-07-17T11:16:32.874Z,12.27
2018-07-17T11:19:04.619Z,10.90
2018-07-17T11:21:35.918Z,11.73
2018-07-17T11:24:07.530Z,11.73
2018-07-17T11:26:38.859Z,12.43
2018-07-17T11:29:09.222Z,12.10
2018-07-17T11:31:40.620Z,11.40
2018-07-17T11:34:12.081Z,12.70
2018-07-17T11:36:42.339Z,12.70
2018-07-17T11:39:14.015Z,12.17
2018-07-17T11:41:45.237Z,13.00
2018-07-17T11:44:16.732Z,13.57
2018-07-17T11:46:48.039Z,12.03
2018-07-17T11:49:18.902Z,13.20
2018-07-17T11:51:50.160Z,12.67
2018-07-17T11:54:21.715Z,12.23
2018-07-17T11:56:52.965Z,12.40
2018-07-17T11:59:24.623Z,13.37
2018-07-17T12:01:55.930Z,12.60
2018-07-17T12:04:27.806Z,11.83
2018-07-17T12:06:59.118Z,12.53
2018-07-17T12:09:30.688Z,12.70
2018-07-17T12:12:01.968Z,12.67
2018-07-17T12:14:33.640Z,13.50
2018-07-17T12:17:04.938Z,13.77
2018-07-17T12:19:36.415Z,13.57
2018-07-17T12:22:07.842Z,11.97
2018-07-17T12:24:39.530Z,12.50
2018-07-17T12:27:10.842Z,13.20
2018-07-17T12:29:42.330Z,13.17
2018-07-17T12:32:13.799Z,12.10
2018-07-17T12:34:44.575Z,14.33
2018-07-17T12:37:14.926Z,13.57
2018-07-17T12:39:49.158Z,12.93
2018-07-17T12:42:20.867Z,13.13
2018-07-17T12:44:52.851Z,14.80
2018-07-17T12:47:24.739Z,13.40
2018-07-17T12:49:56.881Z,13.30
2018-07-17T12:52:28.626Z,13.90
2018-07-17T12:55:00.303Z,13.20
2018-07-17T12:57:32.086Z,13.30
2018-07-17T13:00:02.931Z,13.57
2018-07-17T13:02:34.659Z,14.30
2018-07-17T13:05:05.545Z,12.37
2018-07-17T13:07:37.232Z,13.80
2018-07-17T13:10:09.017Z,15.20
2018-07-17T13:12:40.460Z,13.40
2018-07-17T13:15:12.297Z,14.20
2018-07-17T13:17:43.987Z,13.43
2018-07-17T13:20:16.127Z,14.77
2018-07-17T13:22:47.953Z,14.00
2018-07-17T13:25:19.864Z,14.60
2018-07-17T13:27:50.833Z,16.43
2018-07-17T13:30:22.362Z,15.37
2018-07-17T13:32:53.971Z,14.27
2018-07-17T13:35:25.690Z,14.17
2018-07-17T13:37:57.267Z,14.90
2018-07-17T13:40:30.203Z,15.73
2018-07-17T13:43:01.987Z,16.03
2018-07-17T13:45:33.974Z,15.17
2018-07-17T13:48:05.514Z,15.47
2018-07-17T13:50:37.396Z,16.37
2018-07-17T13:53:09.233Z,14.87
2018-07-17T13:55:41.208Z,15.70
2018-07-17T13:58:12.653Z,15.00
2018-07-17T14:00:44.673Z,16.30
2018-07-17T14:03:16.285Z,17.73
2018-07-17T14:05:47.162Z,17.17
2018-07-17T14:08:18.802Z,17.33
2018-07-17T14:10:50.870Z,16.90
2018-07-17T14:13:22.662Z,17.20
2018-07-17T14:15:54.704Z,16.63
2018-07-17T14:18:26.526Z,16.80
2018-07-17T14:20:58.360Z,17.40
2018-07-17T14:23:30.093Z,16.70
2018-07-17T14:26:02.138Z,16.53
2018-07-17T14:28:33.759Z,16.40
2018-07-17T14:31:04.593Z,16.67
2018-07-17T14:33:35.512Z,17.60
2018-07-17T14:36:07.696Z,19.40
2018-07-17T14:38:39.826Z,16.60
2018-07-17T14:41:12.679Z,17.87
2018-07-17T14:43:44.018Z,17.40
2018-07-17T14:46:15.381Z,16.67
2018-07-17T14:48:46.714Z,18.30
2018-07-17T14:51:18.124Z,17.70
2018-07-17T14:53:49.406Z,19.70
2018-07-17T14:56:20.969Z,18.87
2018-07-17T14:58:52.355Z,17.53
2018-07-17T15:01:23.702Z,18.03
2018-07-17T15:03:55.022Z,17.40
2018-07-17T15:06:26.914Z,18.30
2018-07-17T15:08:59.390Z,17.50
2018-07-17T15:11:34.471Z,19.70
2018-07-17T15:14:04.934Z,19.37
2018-07-17T15:16:36.526Z,18.33
2018-07-17T15:19:07.830Z,18.80
2018-07-17T15:21:39.430Z,18.83
2018-07-17T15:24:10.693Z,19.40
2018-07-17T15:26:42.203Z,19.20
2018-07-17T15:29:12.613Z,19.10
2018-07-17T15:31:44.119Z,19.87
2018-07-17T15:34:15.385Z,18.40
2018-07-17T15:36:46.829Z,18.33
2018-07-17T15:39:18.098Z,19.07
2018-07-17T15:41:51.807Z,18.53
2018-07-17T15:44:23.511Z,19.20
2018-07-17T15:46:54.879Z,20.33
2018-07-17T15:49:26.138Z,19.70
2018-07-17T15:51:57.518Z,19.97
2018-07-17T15:54:28.918Z,20.00
2018-07-17T15:57:00.474Z,19.70
2018-07-17T15:59:31.758Z,19.00
2018-07-17T16:02:03.233Z,18.73
2018-07-17T16:04:34.454Z,20.50
2018-07-17T16:07:06.073Z,20.40
2018-07-17T16:09:37.305Z,19.07
2018-07-17T16:12:09.050Z,18.43
2018-07-17T16:14:41.151Z,17.70
2018-07-17T16:17:13.003Z,17.87
2018-07-17T16:19:44.631Z,18.13
2018-07-17T16:22:16.639Z,16.60
2018-07-17T16:24:48.351Z,16.30
2018-07-17T16:27:20.094Z,16.83
2018-07-17T16:29:50.789Z,16.93
2018-07-17T16:32:22.422Z,17.17
2018-07-17T16:34:53.986Z,17.13
2018-07-17T16:37:24.814Z,16.67
2018-07-17T16:39:56.291Z,15.70
2018-07-17T16:42:29.219Z,16.93
2018-07-17T16:45:00.802Z,16.10
2018-07-17T16:47:33.072Z,16.17
2018-07-17T16:50:05.167Z,16.10
2018-07-17T16:52:37.138Z,15.33
2018-07-17T16:55:10.226Z,15.10
2018-07-17T16:57:43.702Z,15.57
2018-07-17T17:00:15.266Z,15.90
2018-07-17T17:02:47.989Z,15.20
2018-07-17T17:05:20.433Z,15.63
2018-07-17T17:07:51.874Z,14.27
2018-07-17T17:10:25.086Z,15.17
2018-07-17T17:12:56.973Z,15.57
2018-07-17T17:15:28.205Z,14.93
2018-07-17T17:18:00.131Z,15.10
2018-07-17T17:20:31.350Z,15.17
2018-07-17T17:23:03.830Z,15.37
2018-07-17T17:25:36.363Z,15.80
2018-07-17T17:28:09.944Z,15.73
2018-07-17T17:30:41.218Z,14.63
2018-07-17T17:33:12.639Z,15.60
2018-07-17T17:35:43.947Z,14.90
2018-07-17T17:38:15.613Z,15.03
2018-07-17T17:40:53.549Z,15.50
2018-07-17T17:43:28.027Z,14.13
2018-07-17T17:45:59.470Z,16.37
2018-07-17T17:48:31.127Z,15.27
2018-07-17T17:51:03.802Z,15.03
2018-07-17T17:53:35.130Z,15.43
2018-07-17T17:56:08.167Z,15.20
2018-07-17T17:58:39.979Z,15.93
2018-07-17T18:01:11.818Z,15.37
2018-07-17T18:03:43.754Z,14.00
2018-07-17T18:06:15.278Z,13.17
2018-07-17T18:08:47.126Z,13.47
2018-07-17T18:11:18.843Z,15.07
2018-07-17T18:13:51.157Z,13.33
2018-07-17T18:16:22.945Z,12.67
2018-07-17T18:18:56.097Z,13.07
2018-07-17T18:21:27.726Z,14.83
2018-07-17T18:23:59.600Z,12.83
2018-07-17T18:26:31.233Z,14.20
2018-07-17T18:29:02.818Z,12.93
2018-07-17T18:31:34.509Z,13.57
2018-07-17T18:34:06.898Z,15.10
2018-07-17T18:36:38.486Z,14.23
2018-07-17T18:39:10.683Z,14.93
2018-07-17T18:41:42.480Z,15.83
2018-07-17T18:44:15.554Z,14.30
2018-07-17T18:46:47.546Z,15.60
2018-07-17T18:49:19.694Z,13.03
2018-07-17T18:51:51.436Z,12.90
2018-07-17T18:54:29.180Z,14.37
2018-07-17T18:57:01.183Z,13.20
2018-07-17T18:59:33.134Z,13.00
2018-07-17T19:02:04.839Z,13.60
2018-07-17T19:04:36.926Z,13.30
2018-07-17T19:07:08.650Z,13.10
2018-07-17T19:09:40.603Z,13.20
2018-07-17T19:12:12.351Z,13.60
2018-07-17T19:14:44.346Z,14.30
2018-07-17T19:17:17.476Z,14.70
2018-07-17T19:19:49.630Z,14.40
2018-07-17T19:22:21.442Z,15.00
2018-07-17T19:24:53.043Z,14.53
2018-07-17T19:27:25.171Z,15.07
2018-07-17T19:29:57.159Z,15.47
2018-07-17T19:32:28.996Z,15.30
2018-07-17T19:35:01.003Z,13.37
2018-07-17T19:37:32.779Z,13.73
2018-07-17T19:40:04.960Z,15.57
2018-07-17T19:42:36.815Z,15.50
2018-07-17T19:45:09.906Z,15.80
2018-07-17T19:47:41.604Z,15.10
2018-07-17T19:50:13.472Z,15.50
2018-07-17T19:52:44.771Z,16.17
2018-07-17T19:55:16.340Z,15.40
2018-07-17T19:57:47.678Z,14.37
2018-07-17T20:00:19.357Z,15.83
2018-07-17T20:02:50.522Z,15.10
2018-07-17T20:05:21.949Z,15.27
2018-07-17T20:07:53.550Z,14.13
2018-07-17T20:10:25.515Z,14.33
2018-07-17T20:12:56.771Z,14.60
2018-07-17T20:15:28.229Z,13.87
2018-07-17T20:17:59.462Z,14.00
2018-07-17T20:20:30.805Z,14.50
2018-07-17T20:23:02.060Z,15.10
2018-07-17T20:25:33.934Z,14.00
2018-07-17T20:28:05.646Z,13.63
2018-07-17T20:30:37.574Z,14.40
2018-07-17T20:33:09.305Z,14.90
2018-07-17T20:35:41.109Z,15.20
2018-07-17T20:38:13.311Z,15.27
2018-07-17T20:40:45.299Z,16.40
2018-07-17T20:43:16.903Z,17.00
2018-07-17T20:45:49.196Z,15.33
2018-07-17T20:48:20.834Z,16.00
2018-07-17T20:50:52.955Z,15.53
2018-07-17T20:53:24.727Z,16.40
2018-07-17T20:55:55.761Z,16.00
2018-07-17T20:58:27.562Z,15.73
2018-07-17T21:00:59.161Z,14.53
2018-07-17T21:03:30.722Z,14.53
2018-07-17T21:06:03.015Z,14.97
2018-07-17T21:08:34.679Z,15.27
2018-07-17T21:11:06.681Z,15.20
2018-07-17T21:13:38.614Z,16.07
2018-07-17T21:16:10.262Z,15.97
2018-07-17T21:18:42.280Z,17.10
2018-07-17T21:21:13.426Z,18.73
2018-07-17T21:23:44.850Z,21.50
2018-07-17T21:26:16.958Z,23.20
2018-07-17T21:28:48.535Z,25.80
2018-07-17T21:31:20.613Z,24.90
2018-07-17T21:33:51.253Z,24.00
2018-07-17T21:36:22.853Z,21.17
2018-07-17T21:38:54.408Z,20.37
2018-07-17T21:41:26.253Z,21.30
2018-07-17T21:43:57.799Z,19.00
2018-07-17T21:46:32.807Z,18.43
2018-07-17T21:49:03.537Z,16.83
2018-07-17T21:51:35.575Z,18.20
2018-07-17T21:54:07.534Z,18.90
2018-07-17T21:56:39.406Z,18.00
2018-07-17T21:59:10.945Z,18.20
2018-07-17T22:01:42.730Z,17.57
2018-07-17T22:04:14.034Z,18.47
2018-07-17T22:06:45.366Z,16.53
2018-07-17T22:09:15.889Z,17.97
2018-07-17T22:11:47.337Z,18.23
2018-07-17T22:14:17.666Z,17.37
2018-07-17T22:16:49.542Z,18.07
2018-07-17T22:19:20.258Z,18.10
2018-07-17T22:21:51.982Z,18.80
2018-07-17T22:24:23.754Z,17.50
2018-07-17T22:26:55.622Z,16.83
2018-07-17T22:29:27.255Z,18.47
2018-07-17T22:31:59.346Z,18.93
2018-07-17T22:34:30.999Z,18.80
2018-07-17T22:37:02.720Z,16.47
2018-07-17T22:39:34.510Z,18.63
2018-07-17T22:42:06.469Z,18.17
2018-07-17T22:44:38.022Z,19.17
2018-07-17T22:47:10.852Z,18.00
2018-07-17T22:49:42.610Z,19.13
2018-07-17T22:52:14.798Z,17.93
2018-07-17T22:54:46.414Z,18.30
2018-07-17T22:57:17.426Z,18.87
2018-07-17T22:59:49.067Z,17.93
2018-07-17T23:02:20.735Z,19.10
2018-07-17T23:04:52.331Z,18.13
2018-07-17T23:07:24.599Z,19.90
2018-07-17T23:09:55.146Z,18.03
2018-07-17T23:12:27.008Z,18.83
2018-07-17T23:14:58.694Z,18.70
2018-07-17T23:17:30.406Z,19.07
2018-07-17T23:20:02.027Z,18.47
2018-07-17T23:22:49.030Z,17.80
2018-07-17T23:25:21.279Z,19.87
2018-07-17T23:27:53.447Z,19.60
2018-07-17T23:30:25.157Z,19.00
2018-07-17T23:32:57.011Z,18.90
2018-07-17T23:35:28.567Z,20.40
2018-07-17T23:38:00.391Z,19.47
2018-07-17T23:40:31.986Z,18.27
2018-07-17T23:43:04.504Z,18.37
2018-07-17T23:45:36.171Z,18.47
2018-07-17T23:48:09.550Z,19.37
2018-07-17T23:50:41.051Z,17.80
2018-07-17T23:53:12.934Z,19.70
2018-07-17T23:55:44.576Z,20.23
2018-07-17T23:58:16.623Z,18.20
